createdAt,value
2023-05-16T00:02:16.866Z,0.30
2023-05-16T00:04:48.978Z,0.20
2023-05-16T00:07:19.364Z,0.20
2023-05-16T00:09:51.608Z,0.20
2023-05-16T00:12:23.520Z,0.30
2023-05-16T00:14:56.943Z,0.30
2023-05-16T00:17:30.911Z,0.20
2023-05-16T00:20:02.593Z,0.20
2023-05-16T00:22:34.110Z,0.20
2023-05-16T00:25:05.399Z,0.20
2023-05-16T00:27:37.112Z,0.20
2023-05-16T00:30:11.390Z,0.20
2023-05-16T00:32:42.530Z,0.30
2023-05-16T00:35:15.040Z,0.30
2023-05-16T00:37:45.239Z,0.20
2023-05-16T00:40:16.679Z,0.20
2023-05-16T00:42:47.479Z,0.30
2023-05-16T00:45:19.768Z,0.30
2023-05-16T00:47:50.474Z,0.23
2023-05-16T00:50:21.767Z,0.30
2023-05-16T00:52:52.442Z,0.20
2023-05-16T00:55:23.608Z,0.20
2023-05-16T00:57:55.404Z,0.20
2023-05-16T01:00:29.186Z,0.20
2023-05-16T01:03:00.643Z,0.30
2023-05-16T01:05:32.120Z,0.23
2023-05-16T01:08:03.846Z,0.30
2023-05-16T01:10:39.886Z,0.30
2023-05-16T01:13:19.143Z,0.20
2023-05-16T01:16:02.457Z,0.20
2023-05-16T01:18:43.673Z,0.40
2023-05-16T01:21:19.162Z,0.30
2023-05-16T01:23:56.483Z,0.20
2023-05-16T01:26:31.232Z,0.30
2023-05-16T01:29:02.350Z,0.20
2023-05-16T01:31:33.009Z,0.20
2023-05-16T01:34:04.231Z,0.20
2023-05-16T01:36:47.313Z,0.20
2023-05-16T01:39:24.650Z,0.20
2023-05-16T01:42:04.048Z,0.30
2023-05-16T01:44:38.076Z,0.30
2023-05-16T01:47:14.417Z,0.20
2023-05-16T01:49:49.223Z,0.20
2023-05-16T01:52:24.651Z,0.20
2023-05-16T01:55:00.846Z,0.20
2023-05-16T01:57:33.735Z,0.30
2023-05-16T02:00:04.664Z,0.33
2023-05-16T02:02:35.409Z,0.20
2023-05-16T02:05:05.689Z,0.20
2023-05-16T02:07:36.810Z,0.23
2023-05-16T02:10:08.199Z,0.30
2023-05-16T02:12:40.291Z,0.23
2023-05-16T02:15:12.136Z,0.30
2023-05-16T02:17:43.402Z,0.30
2023-05-16T02:20:14.906Z,0.30
2023-05-16T02:22:48.548Z,0.20
2023-05-16T02:25:19.128Z,0.20
2023-05-16T02:27:50.975Z,0.20
2023-05-16T02:30:21.351Z,0.30
2023-05-16T02:32:52.417Z,0.30
2023-05-16T02:35:22.909Z,0.30
2023-05-16T02:37:53.573Z,0.33
2023-05-16T02:40:23.994Z,0.20
2023-05-16T02:42:56.303Z,0.20
2023-05-16T02:45:27.437Z,0.30
2023-05-16T02:47:57.956Z,0.30
2023-05-16T02:50:28.200Z,0.20
2023-05-16T02:53:00.440Z,0.20
2023-05-16T02:55:30.852Z,0.30
2023-05-16T02:58:03.070Z,0.30
2023-05-16T03:00:33.430Z,0.20
2023-05-16T03:03:05.119Z,0.20
2023-05-16T03:05:35.581Z,0.30
2023-05-16T03:08:06.254Z,0.30
2023-05-16T03:10:36.424Z,0.20
2023-05-16T03:13:08.253Z,0.30
2023-05-16T03:15:38.421Z,0.30
2023-05-16T03:18:09.467Z,0.20
2023-05-16T03:20:39.865Z,0.30
2023-05-16T03:23:10.400Z,0.20
2023-05-16T03:25:41.041Z,0.30
2023-05-16T03:28:15.241Z,0.30
2023-05-16T03:30:45.984Z,0.30
2023-05-16T03:33:16.389Z,0.30
2023-05-16T03:35:46.839Z,0.20
2023-05-16T03:38:17.880Z,0.30
2023-05-16T03:40:48.296Z,0.27
2023-05-16T03:43:20.317Z,0.30
2023-05-16T03:45:50.545Z,0.30
2023-05-16T03:48:20.972Z,0.20
2023-05-16T03:50:52.059Z,0.30
2023-05-16T03:53:22.306Z,0.30
2023-05-16T03:55:52.522Z,0.30
2023-05-16T03:58:24.382Z,0.23
2023-05-16T04:00:55.260Z,0.27
2023-05-16T04:03:29.473Z,0.30
2023-05-16T04:06:00.304Z,0.30
2023-05-16T04:08:30.523Z,0.30
2023-05-16T04:11:00.907Z,0.30
2023-05-16T04:13:32.846Z,0.30
2023-05-16T04:16:03.204Z,0.20
2023-05-16T04:18:33.500Z,0.20
2023-05-16T04:21:03.787Z,0.30
2023-05-16T04:23:34.198Z,0.30
2023-05-16T04:26:05.331Z,0.30
2023-05-16T04:28:37.313Z,0.20
2023-05-16T04:31:08.798Z,0.30
2023-05-16T04:33:39.703Z,0.20
2023-05-16T04:36:10.229Z,0.30
2023-05-16T04:38:40.440Z,0.30
2023-05-16T04:41:10.969Z,0.30
2023-05-16T04:43:43.053Z,0.30
2023-05-16T04:46:14.208Z,0.30
2023-05-16T04:48:45.004Z,0.30
2023-05-16T04:51:15.247Z,0.30
2023-05-16T04:53:45.513Z,0.30
2023-05-16T04:56:15.731Z,0.30
2023-05-16T04:58:47.741Z,0.30
2023-05-16T05:01:18.068Z,0.30
2023-05-16T05:03:48.628Z,0.30
2023-05-16T05:06:19.074Z,0.30
2023-05-16T05:08:49.296Z,0.30
2023-05-16T05:11:20.043Z,0.30
2023-05-16T05:13:53.060Z,0.30
2023-05-16T05:16:23.310Z,0.30
2023-05-16T05:18:53.667Z,0.30
2023-05-16T05:21:25.911Z,0.30
2023-05-16T05:23:56.734Z,0.30
2023-05-16T05:26:27.146Z,0.30
2023-05-16T05:29:05.344Z,0.30
2023-05-16T05:31:36.505Z,0.30
2023-05-16T05:34:07.249Z,0.27
2023-05-16T05:36:37.421Z,0.30
2023-05-16T05:39:07.709Z,0.30
2023-05-16T05:41:38.366Z,0.30
2023-05-16T05:44:10.239Z,0.30
2023-05-16T05:46:40.799Z,0.30
2023-05-16T05:49:11.191Z,0.30
2023-05-16T05:51:41.595Z,0.30
2023-05-16T05:54:11.837Z,0.20
2023-05-16T05:56:42.227Z,0.30
2023-05-16T05:59:14.286Z,0.30
2023-05-16T06:01:45.244Z,0.30
2023-05-16T06:04:18.565Z,0.30
2023-05-16T06:06:48.894Z,0.30
2023-05-16T06:09:19.406Z,0.30
2023-05-16T06:11:49.572Z,0.20
2023-05-16T06:14:22.855Z,0.30
2023-05-16T06:16:54.033Z,0.30
2023-05-16T06:19:24.406Z,0.20
2023-05-16T06:21:54.627Z,0.30
2023-05-16T06:24:25.273Z,0.30
2023-05-16T06:26:55.470Z,0.30
2023-05-16T06:29:27.452Z,0.30
2023-05-16T06:31:57.864Z,0.30
2023-05-16T06:34:29.058Z,0.30
2023-05-16T06:36:59.586Z,0.30
2023-05-16T06:39:29.814Z,0.30
2023-05-16T06:42:00.062Z,0.20
2023-05-16T06:44:31.980Z,0.30
2023-05-16T06:47:02.992Z,0.30
2023-05-16T06:49:33.277Z,0.30
2023-05-16T06:52:03.526Z,0.30
2023-05-16T06:54:33.820Z,0.30
2023-05-16T06:57:04.695Z,0.30
2023-05-16T06:59:36.711Z,0.30
2023-05-16T07:02:07.476Z,0.30
2023-05-16T07:04:38.731Z,0.20
2023-05-16T07:07:09.812Z,0.40
2023-05-16T07:09:40.054Z,0.30
2023-05-16T07:12:10.710Z,0.20
2023-05-16T07:14:44.278Z,0.30
2023-05-16T07:17:14.576Z,0.30
2023-05-16T07:19:44.798Z,0.30
2023-05-16T07:22:15.487Z,0.30
2023-05-16T07:24:45.731Z,0.33
2023-05-16T07:27:15.954Z,0.20
2023-05-16T07:29:47.872Z,0.30
2023-05-16T07:32:18.679Z,0.30
2023-05-16T07:34:49.605Z,0.30
2023-05-16T07:37:21.139Z,0.30
2023-05-16T07:39:51.376Z,0.30
2023-05-16T07:42:21.606Z,0.30
2023-05-16T07:44:53.542Z,0.37
2023-05-16T07:47:23.786Z,0.30
2023-05-16T07:49:54.091Z,0.30
2023-05-16T07:52:24.434Z,0.30
2023-05-16T07:54:55.195Z,0.30
2023-05-16T07:57:25.554Z,0.30
2023-05-16T07:59:57.699Z,0.30
2023-05-16T08:02:31.508Z,0.30
2023-05-16T08:05:02.164Z,0.33
2023-05-16T08:07:32.901Z,0.30
2023-05-16T08:10:04.418Z,0.40
2023-05-16T08:12:34.644Z,0.30
2023-05-16T08:15:06.945Z,0.30
2023-05-16T08:17:37.211Z,0.40
2023-05-16T08:20:08.425Z,0.30
2023-05-16T08:22:39.416Z,0.30
2023-05-16T08:25:10.968Z,0.30
2023-05-16T08:27:41.395Z,0.30
2023-05-16T08:30:15.135Z,0.30
2023-05-16T08:32:46.118Z,0.30
2023-05-16T08:35:16.502Z,0.30
2023-05-16T08:37:47.505Z,0.30
2023-05-16T08:40:18.587Z,0.30
2023-05-16T08:42:48.955Z,0.40
2023-05-16T08:45:21.745Z,0.30
2023-05-16T08:47:53.791Z,0.30
2023-05-16T08:50:24.836Z,0.33
2023-05-16T08:52:55.899Z,0.30
2023-05-16T08:55:28.250Z,0.30
2023-05-16T08:57:59.292Z,0.40
2023-05-16T09:00:32.405Z,0.40
2023-05-16T09:03:03.381Z,0.30
2023-05-16T09:05:35.120Z,0.30
2023-05-16T09:08:07.398Z,0.30
2023-05-16T09:10:37.686Z,0.40
2023-05-16T09:13:07.895Z,0.30
2023-05-16T09:15:40.046Z,0.40
2023-05-16T09:18:16.599Z,0.30
2023-05-16T09:20:50.765Z,0.30
2023-05-16T09:23:27.376Z,0.30
2023-05-16T09:25:57.616Z,0.30
2023-05-16T09:28:28.731Z,0.33
2023-05-16T09:31:03.132Z,0.30
2023-05-16T09:33:33.859Z,0.30
2023-05-16T09:36:06.674Z,0.33
2023-05-16T09:38:36.971Z,0.30
2023-05-16T09:41:07.716Z,0.30
2023-05-16T09:43:42.091Z,0.30
2023-05-16T09:46:16.621Z,0.37
2023-05-16T09:48:49.130Z,0.30
2023-05-16T09:51:24.193Z,0.30
2023-05-16T09:53:57.186Z,0.30
2023-05-16T09:56:27.781Z,0.30
2023-05-16T09:58:58.134Z,0.30
2023-05-16T10:01:30.138Z,0.30
2023-05-16T10:04:00.658Z,0.30
2023-05-16T10:06:31.580Z,0.30
2023-05-16T10:09:03.144Z,0.30
2023-05-16T10:11:34.214Z,0.30
2023-05-16T10:14:07.762Z,0.30
2023-05-16T10:16:42.584Z,0.40
2023-05-16T10:19:13.772Z,0.30
2023-05-16T10:21:49.011Z,0.30
2023-05-16T10:24:24.853Z,0.30
2023-05-16T10:26:55.860Z,0.30
2023-05-16T10:29:27.552Z,0.30
2023-05-16T10:32:00.534Z,0.30
2023-05-16T10:34:31.682Z,0.30
2023-05-16T10:37:03.230Z,0.30
2023-05-16T10:39:34.664Z,0.30
2023-05-16T10:42:05.190Z,0.30
2023-05-16T10:44:36.049Z,0.40
2023-05-16T10:47:08.140Z,0.30
2023-05-16T10:49:42.771Z,0.33
2023-05-16T10:52:14.229Z,0.30
2023-05-16T10:54:45.915Z,0.30
2023-05-16T10:57:21.602Z,0.30
2023-05-16T10:59:53.262Z,0.30
2023-05-16T11:02:30.962Z,0.40
2023-05-16T11:05:02.954Z,0.30
2023-05-16T11:07:36.789Z,0.33
2023-05-16T11:10:12.174Z,0.40
2023-05-16T11:12:51.123Z,0.40
2023-05-16T11:15:23.323Z,0.30
2023-05-16T11:18:06.996Z,0.30
2023-05-16T11:20:38.657Z,0.30
2023-05-16T11:23:26.566Z,0.30
2023-05-16T11:25:59.295Z,0.30
2023-05-16T11:28:30.815Z,0.30
2023-05-16T11:31:02.999Z,0.30
2023-05-16T11:33:37.196Z,0.40
2023-05-16T11:38:44.534Z,0.30
2023-05-16T11:41:17.236Z,0.30
2023-05-16T11:43:48.403Z,0.30
2023-05-16T11:46:19.043Z,0.33
2023-05-16T11:48:51.129Z,0.30
2023-05-16T11:51:21.914Z,0.40
2023-05-16T11:53:52.901Z,0.30
2023-05-16T11:56:24.537Z,0.30
2023-05-16T11:58:55.484Z,0.30
2023-05-16T12:01:25.695Z,0.30
2023-05-16T12:04:01.584Z,0.40
2023-05-16T12:06:32.215Z,0.30
2023-05-16T12:09:04.938Z,0.30
2023-05-16T12:11:35.158Z,0.30
2023-05-16T12:14:06.233Z,0.30
2023-05-16T12:16:37.734Z,0.30
2023-05-16T12:19:10.771Z,0.33
2023-05-16T12:21:41.540Z,0.30
2023-05-16T12:24:14.414Z,0.30
2023-05-16T12:26:45.428Z,0.30
2023-05-16T12:29:15.961Z,0.23
2023-05-16T12:31:46.346Z,0.30
2023-05-16T12:34:23.895Z,0.30
2023-05-16T12:36:55.571Z,0.30
2023-05-16T12:39:26.272Z,0.40
2023-05-16T12:41:57.221Z,0.20
2023-05-16T12:44:32.239Z,0.30
2023-05-16T12:47:02.446Z,0.30
2023-05-16T12:49:36.357Z,0.30
2023-05-16T12:52:08.750Z,0.30
2023-05-16T12:54:39.968Z,0.30
2023-05-16T12:57:10.881Z,0.30
2023-05-16T12:59:41.103Z,0.30
2023-05-16T13:02:11.699Z,0.30
2023-05-16T13:04:44.365Z,0.30
2023-05-16T13:07:15.506Z,0.30
2023-05-16T13:09:45.779Z,0.30
2023-05-16T13:12:16.456Z,0.30
2023-05-16T13:14:47.420Z,0.30
2023-05-16T13:17:17.600Z,0.37
2023-05-16T13:19:49.685Z,0.30
2023-05-16T13:22:19.884Z,0.30
2023-05-16T13:24:50.326Z,0.30
2023-05-16T13:27:20.595Z,0.30
2023-05-16T13:29:50.838Z,0.30
2023-05-16T13:32:21.690Z,0.30
2023-05-16T13:34:53.570Z,0.30
2023-05-16T13:37:24.983Z,0.30
2023-05-16T13:39:56.954Z,0.23
2023-05-16T13:42:27.221Z,0.30
2023-05-16T13:44:57.457Z,0.30
2023-05-16T13:47:27.656Z,0.30
2023-05-16T13:49:59.820Z,0.30
2023-05-16T13:52:30.615Z,0.20
2023-05-16T13:55:00.841Z,0.30
2023-05-16T13:57:31.018Z,0.30
2023-05-16T14:02:36.288Z,0.30
2023-05-16T14:05:09.219Z,0.30
2023-05-16T14:07:39.490Z,0.30
2023-05-16T14:10:11.276Z,0.30
2023-05-16T14:12:41.460Z,0.30
2023-05-16T14:15:12.728Z,0.30
2023-05-16T14:17:43.169Z,0.20
2023-05-16T14:20:16.192Z,0.30
2023-05-16T14:22:46.981Z,0.30
2023-05-16T14:25:17.301Z,0.30
2023-05-16T14:27:47.864Z,0.30
2023-05-16T14:30:18.161Z,0.30
2023-05-16T14:32:49.040Z,0.30
2023-05-16T14:35:21.096Z,0.30
2023-05-16T14:37:51.303Z,0.30
2023-05-16T14:40:22.402Z,0.30
2023-05-16T14:42:52.949Z,0.30
2023-05-16T14:45:23.212Z,0.30
2023-05-16T14:47:53.449Z,0.27
2023-05-16T14:50:26.062Z,0.20
2023-05-16T14:52:56.515Z,0.20
2023-05-16T14:55:27.128Z,0.30
2023-05-16T14:58:00.116Z,0.30
2023-05-16T15:00:31.219Z,0.30
2023-05-16T15:03:02.094Z,0.30
2023-05-16T15:05:34.131Z,0.30
2023-05-16T15:08:04.359Z,0.20
2023-05-16T15:10:37.238Z,0.30
2023-05-16T15:13:07.520Z,0.30
2023-05-16T15:15:39.341Z,0.37
2023-05-16T15:18:11.309Z,0.30
2023-05-16T15:20:43.663Z,0.30
2023-05-16T15:23:14.205Z,0.30
2023-05-16T15:25:44.557Z,0.30
2023-05-16T15:28:14.898Z,0.20
2023-05-16T15:30:45.293Z,0.30
2023-05-16T15:33:16.191Z,0.30
2023-05-16T15:35:52.194Z,0.30
2023-05-16T15:38:22.516Z,0.30
2023-05-16T15:41:09.641Z,0.30
2023-05-16T15:43:43.292Z,0.20
2023-05-16T15:46:14.121Z,0.30
2023-05-16T15:48:45.568Z,0.40
2023-05-16T15:51:18.075Z,0.30
2023-05-16T15:53:48.330Z,0.30
2023-05-16T15:56:18.654Z,0.30
2023-05-16T15:58:48.955Z,0.30
2023-05-16T16:01:19.895Z,0.20
2023-05-16T16:03:50.929Z,0.20
2023-05-16T16:06:23.247Z,0.20
2023-05-16T16:08:53.429Z,0.20
2023-05-16T16:11:24.066Z,0.20
2023-05-16T16:13:54.496Z,0.20
2023-05-16T16:16:24.814Z,0.30
2023-05-16T16:18:55.894Z,0.30
2023-05-16T16:21:27.887Z,0.30
2023-05-16T16:23:58.054Z,0.30
2023-05-16T16:26:28.358Z,0.20
2023-05-16T16:28:58.855Z,0.30
2023-05-16T16:31:30.039Z,0.30
2023-05-16T16:34:01.100Z,0.20
2023-05-16T16:36:33.741Z,0.30
2023-05-16T16:39:06.438Z,0.30
2023-05-16T16:41:41.127Z,0.30
2023-05-16T16:44:11.424Z,0.30
2023-05-16T16:46:42.275Z,0.20
2023-05-16T16:49:12.559Z,0.20
2023-05-16T16:51:44.498Z,0.30
2023-05-16T16:54:14.718Z,0.30
2023-05-16T16:56:44.945Z,0.20
2023-05-16T16:59:15.419Z,0.30
2023-05-16T17:01:46.198Z,0.20
2023-05-16T17:04:16.445Z,0.30
2023-05-16T17:06:48.803Z,0.30
2023-05-16T17:09:20.931Z,0.30
2023-05-16T17:11:51.433Z,0.20
2023-05-16T17:14:21.702Z,0.30
2023-05-16T17:16:52.484Z,0.30
2023-05-16T17:19:23.027Z,0.30
2023-05-16T17:21:55.170Z,0.30
2023-05-16T17:24:25.645Z,0.30
2023-05-16T17:26:58.210Z,0.27
2023-05-16T17:29:28.484Z,0.30
2023-05-16T17:31:59.060Z,0.23
2023-05-16T17:34:29.423Z,0.20
2023-05-16T17:37:01.792Z,0.30
2023-05-16T17:39:32.210Z,0.30
2023-05-16T17:42:02.568Z,0.30
2023-05-16T17:44:33.053Z,0.30
2023-05-16T17:47:03.377Z,0.30
2023-05-16T17:49:34.057Z,0.30
2023-05-16T17:52:06.291Z,0.30
2023-05-16T17:54:37.189Z,0.30
2023-05-16T17:57:08.645Z,0.40
2023-05-16T17:59:39.260Z,0.30
2023-05-16T18:02:10.627Z,0.30
2023-05-16T18:04:40.810Z,0.30
2023-05-16T18:07:13.030Z,0.30
2023-05-16T18:09:43.207Z,0.30
2023-05-16T18:12:13.597Z,0.30
2023-05-16T18:14:45.474Z,0.40
2023-05-16T18:17:15.997Z,0.40
2023-05-16T18:19:46.423Z,0.40
2023-05-16T18:22:18.588Z,0.40
2023-05-16T18:24:48.782Z,0.40
2023-05-16T18:27:19.745Z,0.30
2023-05-16T18:29:49.929Z,0.40
2023-05-16T18:32:20.873Z,0.40
2023-05-16T18:34:51.096Z,0.40
2023-05-16T18:37:23.852Z,0.40
2023-05-16T18:39:54.110Z,0.40
2023-05-16T18:42:26.521Z,0.40
2023-05-16T18:44:56.757Z,0.40
2023-05-16T18:47:27.500Z,0.40
2023-05-16T18:49:57.926Z,0.50
2023-05-16T18:52:29.836Z,0.40
2023-05-16T18:55:00.605Z,0.40
2023-05-16T18:57:31.374Z,0.40
2023-05-16T19:00:02.022Z,0.47
2023-05-16T19:02:41.696Z,0.50
2023-05-16T19:05:15.081Z,0.40
2023-05-16T19:07:47.160Z,0.50
2023-05-16T19:10:17.390Z,0.40
2023-05-16T19:12:49.618Z,0.50
2023-05-16T19:15:19.881Z,0.50
2023-05-16T19:17:50.343Z,0.50
2023-05-16T19:20:20.723Z,0.50
2023-05-16T19:22:52.797Z,0.50
2023-05-16T19:25:23.476Z,0.40
2023-05-16T19:27:53.710Z,0.40
2023-05-16T19:30:25.001Z,0.50
2023-05-16T19:32:55.909Z,0.40
2023-05-16T19:35:26.533Z,0.50
2023-05-16T19:38:01.902Z,0.50
2023-05-16T19:40:32.266Z,0.40
2023-05-16T19:43:02.722Z,0.50
2023-05-16T19:45:33.250Z,0.50
2023-05-16T19:48:03.577Z,0.50
2023-05-16T19:50:33.830Z,0.50
2023-05-16T19:53:05.734Z,0.50
2023-05-16T19:58:26.871Z,0.50
2023-05-16T20:00:58.481Z,0.47
2023-05-16T20:03:29.006Z,0.50
2023-05-16T20:05:59.378Z,0.50
2023-05-16T20:08:31.376Z,0.50
2023-05-16T20:11:02.040Z,0.50
2023-05-16T20:13:32.789Z,0.53
2023-05-16T20:16:04.290Z,0.50
2023-05-16T20:18:35.168Z,0.50
2023-05-16T20:21:05.447Z,0.50
2023-05-16T20:23:40.607Z,0.60
2023-05-16T20:26:15.702Z,0.50
2023-05-16T20:28:46.378Z,0.50
2023-05-16T20:31:16.581Z,0.50
2023-05-16T20:33:47.743Z,0.50
2023-05-16T20:36:18.015Z,0.50
2023-05-16T20:38:50.402Z,0.50
2023-05-16T20:41:20.626Z,0.50
2023-05-16T20:43:51.528Z,0.50
2023-05-16T20:46:21.744Z,0.50
2023-05-16T20:48:52.049Z,0.57
2023-05-16T20:51:22.657Z,0.50
2023-05-16T20:53:54.778Z,0.53
2023-05-16T20:56:24.930Z,0.40
2023-05-16T20:58:55.430Z,0.50
2023-05-16T21:01:26.030Z,0.50
2023-05-16T21:03:56.321Z,0.50
2023-05-16T21:06:28.350Z,0.50
2023-05-16T21:09:00.398Z,0.60
2023-05-16T21:11:33.345Z,0.50
2023-05-16T21:14:03.920Z,0.60
2023-05-16T21:16:34.152Z,0.50
2023-05-16T21:19:05.093Z,0.50
2023-05-16T21:21:35.630Z,0.50
2023-05-16T21:24:07.874Z,0.50
2023-05-16T21:26:38.040Z,0.60
2023-05-16T21:29:08.406Z,0.40
2023-05-16T21:31:39.016Z,0.60
2023-05-16T21:34:10.502Z,0.50
2023-05-16T21:36:40.745Z,0.40
2023-05-16T21:39:12.717Z,0.47
2023-05-16T21:41:43.251Z,0.50
2023-05-16T21:44:17.862Z,0.60
2023-05-16T21:46:48.067Z,0.50
2023-05-16T21:49:18.383Z,0.40
2023-05-16T21:51:48.719Z,0.60
2023-05-16T21:54:20.741Z,0.50
2023-05-16T21:56:51.281Z,0.50
2023-05-16T21:59:21.650Z,0.50
2023-05-16T22:01:52.140Z,0.50
2023-05-16T22:04:22.538Z,0.50
2023-05-16T22:06:52.853Z,0.50
2023-05-16T22:09:25.117Z,0.50
2023-05-16T22:11:55.307Z,0.40
2023-05-16T22:14:25.801Z,0.40
2023-05-16T22:16:56.031Z,0.40
2023-05-16T22:19:27.980Z,0.60
2023-05-16T22:21:58.894Z,0.50
2023-05-16T22:24:30.916Z,0.50
2023-05-16T22:27:01.176Z,0.50
2023-05-16T22:29:31.883Z,0.50
2023-05-16T22:32:02.065Z,0.40
2023-05-16T22:34:32.856Z,0.40
2023-05-16T22:37:03.074Z,0.50
2023-05-16T22:39:35.170Z,0.50
2023-05-16T22:42:05.681Z,0.60
2023-05-16T22:44:36.086Z,0.50
2023-05-16T22:47:06.691Z,0.40
2023-05-16T22:49:37.196Z,0.40
2023-05-16T22:52:08.286Z,0.50
2023-05-16T22:54:42.258Z,0.40
2023-05-16T22:57:12.619Z,0.50
2023-05-16T22:59:42.910Z,0.50
2023-05-16T23:02:13.336Z,0.40
2023-05-16T23:04:44.098Z,0.40
2023-05-16T23:07:15.162Z,0.50
2023-05-16T23:09:47.133Z,0.50
2023-05-16T23:12:18.138Z,0.50
2023-05-16T23:14:49.003Z,0.50
2023-05-16T23:17:22.350Z,0.50
2023-05-16T23:19:52.767Z,0.50
2023-05-16T23:22:23.584Z,0.60
2023-05-16T23:24:58.689Z,0.50
2023-05-16T23:27:29.034Z,0.50
2023-05-16T23:29:59.882Z,0.50
2023-05-16T23:32:30.464Z,0.43
2023-05-16T23:35:01.195Z,0.50
2023-05-16T23:37:32.805Z,0.50
2023-05-16T23:40:04.779Z,0.50
2023-05-16T23:42:35.244Z,0.40
2023-05-16T23:45:07.126Z,0.50
2023-05-16T23:47:38.782Z,0.40
2023-05-16T23:50:10.951Z,0.50
2023-05-16T23:52:41.576Z,0.50
2023-05-16T23:55:14.398Z,0.43
2023-05-16T23:57:44.716Z,0.50
